sensor_id;sensor_type;location;lat;lon;timestamp;temperature;humidity
5960;DHT22;3006;50.956;7.002;2024-03-17T00:01:37;7.30;88.20
5960;DHT22;3006;50.956;7.002;2024-03-17T00:04:04;7.30;88.60
5960;DHT22;3006;50.956;7.002;2024-03-17T00:06:32;7.40;88.30
5960;DHT22;3006;50.956;7.002;2024-03-17T00:08:59;7.40;88.20
5960;DHT22;3006;50.956;7.002;2024-03-17T00:11:26;7.20;88.80
5960;DHT22;3006;50.956;7.002;2024-03-17T00:13:54;7.20;89.00
5960;DHT22;3006;50.956;7.002;2024-03-17T00:16:20;7.30;88.70
5960;DHT22;3006;50.956;7.002;2024-03-17T00:18:47;7.20;88.60
5960;DHT22;3006;50.956;7.002;2024-03-17T00:21:13;7.30;89.00
5960;DHT22;3006;50.956;7.002;2024-03-17T00:23:42;7.20;88.80
5960;DHT22;3006;50.956;7.002;2024-03-17T00:26:08;7.10;89.70
5960;DHT22;3006;50.956;7.002;2024-03-17T00:28:35;7.10;89.70
5960;DHT22;3006;50.956;7.002;2024-03-17T00:31:03;7.10;89.50
5960;DHT22;3006;50.956;7.002;2024-03-17T00:33:30;7.00;89.80
5960;DHT22;3006;50.956;7.002;2024-03-17T00:35:56;7.00;90.20
5960;DHT22;3006;50.956;7.002;2024-03-17T00:38:25;7.00;89.90
5960;DHT22;3006;50.956;7.002;2024-03-17T00:40:53;7.00;90.10
5960;DHT22;3006;50.956;7.002;2024-03-17T00:43:20;7.00;90.50
5960;DHT22;3006;50.956;7.002;2024-03-17T00:45:51;7.00;90.30
5960;DHT22;3006;50.956;7.002;2024-03-17T00:48:19;7.00;90.10
5960;DHT22;3006;50.956;7.002;2024-03-17T00:50:45;7.00;90.20
5960;DHT22;3006;50.956;7.002;2024-03-17T00:53:12;6.90;90.60
5960;DHT22;3006;50.956;7.002;2024-03-17T00:55:38;6.90;90.80
5960;DHT22;3006;50.956;7.002;2024-03-17T00:58:08;6.90;90.30
5960;DHT22;3006;50.956;7.002;2024-03-17T01:00:34;6.90;90.80
5960;DHT22;3006;50.956;7.002;2024-03-17T01:03:01;6.90;90.10
5960;DHT22;3006;50.956;7.002;2024-03-17T01:05:27;6.90;90.60
5960;DHT22;3006;50.956;7.002;2024-03-17T01:07:54;6.90;90.60
5960;DHT22;3006;50.956;7.002;2024-03-17T01:10:21;6.90;90.40
5960;DHT22;3006;50.956;7.002;2024-03-17T01:12:48;6.90;90.20
5960;DHT22;3006;50.956;7.002;2024-03-17T01:15:15;6.80;90.60
5960;DHT22;3006;50.956;7.002;2024-03-17T01:17:43;6.70;91.40
5960;DHT22;3006;50.956;7.002;2024-03-17T01:20:09;6.80;91.00
5960;DHT22;3006;50.956;7.002;2024-03-17T01:22:37;6.90;90.10
5960;DHT22;3006;50.956;7.002;2024-03-17T01:25:03;6.90;90.00
5960;DHT22;3006;50.956;7.002;2024-03-17T01:27:32;6.80;90.10
5960;DHT22;3006;50.956;7.002;2024-03-17T01:29:58;6.80;90.20
5960;DHT22;3006;50.956;7.002;2024-03-17T01:32:26;6.80;90.10
5960;DHT22;3006;50.956;7.002;2024-03-17T01:34:53;6.70;90.40
5960;DHT22;3006;50.956;7.002;2024-03-17T01:37:20;6.80;90.20
5960;DHT22;3006;50.956;7.002;2024-03-17T01:39:46;6.70;90.40
5960;DHT22;3006;50.956;7.002;2024-03-17T01:42:15;6.60;90.90
5960;DHT22;3006;50.956;7.002;2024-03-17T01:44:41;6.60;91.50
5960;DHT22;3006;50.956;7.002;2024-03-17T01:47:09;6.70;91.00
5960;DHT22;3006;50.956;7.002;2024-03-17T01:49:37;6.50;91.40
5960;DHT22;3006;50.956;7.002;2024-03-17T01:52:04;6.60;91.20
5960;DHT22;3006;50.956;7.002;2024-03-17T01:54:31;6.60;91.20
5960;DHT22;3006;50.956;7.002;2024-03-17T01:56:59;6.50;91.20
5960;DHT22;3006;50.956;7.002;2024-03-17T01:59:25;6.40;91.50
5960;DHT22;3006;50.956;7.002;2024-03-17T02:01:52;6.40;91.80
5960;DHT22;3006;50.956;7.002;2024-03-17T02:04:19;6.50;91.70
5960;DHT22;3006;50.956;7.002;2024-03-17T02:06:49;6.50;91.50
5960;DHT22;3006;50.956;7.002;2024-03-17T02:09:15;6.50;91.20
5960;DHT22;3006;50.956;7.002;2024-03-17T02:11:44;6.50;91.20
5960;DHT22;3006;50.956;7.002;2024-03-17T02:14:11;6.40;91.20
5960;DHT22;3006;50.956;7.002;2024-03-17T02:16:40;6.30;91.50
5960;DHT22;3006;50.956;7.002;2024-03-17T02:19:06;6.30;91.60
5960;DHT22;3006;50.956;7.002;2024-03-17T02:21:33;6.20;92.10
5960;DHT22;3006;50.956;7.002;2024-03-17T02:24:01;6.20;91.90
5960;DHT22;3006;50.956;7.002;2024-03-17T02:26:28;6.20;92.40
5960;DHT22;3006;50.956;7.002;2024-03-17T02:28:54;6.10;92.50
5960;DHT22;3006;50.956;7.002;2024-03-17T02:31:21;6.10;92.30
5960;DHT22;3006;50.956;7.002;2024-03-17T02:33:48;6.20;92.10
5960;DHT22;3006;50.956;7.002;2024-03-17T02:36:15;6.00;92.50
5960;DHT22;3006;50.956;7.002;2024-03-17T02:38:43;6.10;92.50
5960;DHT22;3006;50.956;7.002;2024-03-17T02:41:29;6.10;92.10
5960;DHT22;3006;50.956;7.002;2024-03-17T02:43:56;6.10;92.70
5960;DHT22;3006;50.956;7.002;2024-03-17T02:46:23;6.10;92.20
5960;DHT22;3006;50.956;7.002;2024-03-17T02:48:52;6.20;92.00
5960;DHT22;3006;50.956;7.002;2024-03-17T02:51:21;6.20;91.70
5960;DHT22;3006;50.956;7.002;2024-03-17T02:53:49;5.90;92.50
5960;DHT22;3006;50.956;7.002;2024-03-17T02:56:18;6.00;92.70
5960;DHT22;3006;50.956;7.002;2024-03-17T02:58:47;6.00;92.50
5960;DHT22;3006;50.956;7.002;2024-03-17T03:01:15;6.00;92.70
5960;DHT22;3006;50.956;7.002;2024-03-17T03:03:42;6.10;92.30
5960;DHT22;3006;50.956;7.002;2024-03-17T03:06:09;6.00;92.00
5960;DHT22;3006;50.956;7.002;2024-03-17T03:08:37;5.80;93.00
5960;DHT22;3006;50.956;7.002;2024-03-17T03:11:07;5.80;93.20
5960;DHT22;3006;50.956;7.002;2024-03-17T03:13:37;5.80;93.00
5960;DHT22;3006;50.956;7.002;2024-03-17T03:16:08;5.90;92.90
5960;DHT22;3006;50.956;7.002;2024-03-17T03:18:35;5.80;92.70
5960;DHT22;3006;50.956;7.002;2024-03-17T03:21:02;5.80;93.00
5960;DHT22;3006;50.956;7.002;2024-03-17T03:23:30;5.90;92.70
5960;DHT22;3006;50.956;7.002;2024-03-17T03:25:59;5.80;92.80
5960;DHT22;3006;50.956;7.002;2024-03-17T03:28:30;5.90;92.60
5960;DHT22;3006;50.956;7.002;2024-03-17T03:30:57;5.80;92.50
5960;DHT22;3006;50.956;7.002;2024-03-17T03:33:26;5.70;93.20
5960;DHT22;3006;50.956;7.002;2024-03-17T03:35:53;5.60;93.30
5960;DHT22;3006;50.956;7.002;2024-03-17T03:38:22;5.70;93.30
5960;DHT22;3006;50.956;7.002;2024-03-17T03:40:49;5.60;93.00
5960;DHT22;3006;50.956;7.002;2024-03-17T03:43:18;5.60;93.00
5960;DHT22;3006;50.956;7.002;2024-03-17T03:45:45;5.70;93.20
5960;DHT22;3006;50.956;7.002;2024-03-17T03:48:12;5.70;93.00
5960;DHT22;3006;50.956;7.002;2024-03-17T03:50:41;5.70;92.60
5960;DHT22;3006;50.956;7.002;2024-03-17T03:53:09;5.60;93.10
5960;DHT22;3006;50.956;7.002;2024-03-17T03:55:37;5.70;92.70
5960;DHT22;3006;50.956;7.002;2024-03-17T03:58:04;5.60;93.00
5960;DHT22;3006;50.956;7.002;2024-03-17T04:00:31;5.50;93.30
5960;DHT22;3006;50.956;7.002;2024-03-17T04:02:59;5.50;93.60
5960;DHT22;3006;50.956;7.002;2024-03-17T04:05:27;5.50;93.60
5960;DHT22;3006;50.956;7.002;2024-03-17T04:07:56;5.50;93.50
5960;DHT22;3006;50.956;7.002;2024-03-17T04:10:24;5.50;94.00
5960;DHT22;3006;50.956;7.002;2024-03-17T04:12:51;5.50;93.70
5960;DHT22;3006;50.956;7.002;2024-03-17T04:15:19;5.50;93.10
5960;DHT22;3006;50.956;7.002;2024-03-17T04:17:46;5.60;93.00
5960;DHT22;3006;50.956;7.002;2024-03-17T04:20:14;5.60;92.40
5960;DHT22;3006;50.956;7.002;2024-03-17T04:22:42;5.40;93.00
5960;DHT22;3006;50.956;7.002;2024-03-17T04:25:11;5.30;94.10
5960;DHT22;3006;50.956;7.002;2024-03-17T04:27:40;5.40;93.70
5960;DHT22;3006;50.956;7.002;2024-03-17T04:30:07;5.50;93.00
5960;DHT22;3006;50.956;7.002;2024-03-17T04:32:34;5.50;92.90
5960;DHT22;3006;50.956;7.002;2024-03-17T04:35:02;5.50;92.50
5960;DHT22;3006;50.956;7.002;2024-03-17T04:37:29;5.50;92.50
5960;DHT22;3006;50.956;7.002;2024-03-17T04:39:56;5.40;92.80
5960;DHT22;3006;50.956;7.002;2024-03-17T04:42:25;5.40;92.20
5960;DHT22;3006;50.956;7.002;2024-03-17T04:44:52;5.50;92.80
5960;DHT22;3006;50.956;7.002;2024-03-17T04:47:19;5.40;92.80
5960;DHT22;3006;50.956;7.002;2024-03-17T04:49:47;5.50;92.70
5960;DHT22;3006;50.956;7.002;2024-03-17T04:52:14;5.50;92.60
5960;DHT22;3006;50.956;7.002;2024-03-17T04:54:42;5.60;91.70
5960;DHT22;3006;50.956;7.002;2024-03-17T04:57:09;5.50;92.10
5960;DHT22;3006;50.956;7.002;2024-03-17T04:59:38;5.50;92.10
5960;DHT22;3006;50.956;7.002;2024-03-17T05:02:06;5.60;92.00
5960;DHT22;3006;50.956;7.002;2024-03-17T05:04:33;5.50;92.20
5960;DHT22;3006;50.956;7.002;2024-03-17T05:07:00;5.60;91.70
5960;DHT22;3006;50.956;7.002;2024-03-17T05:09:27;5.60;91.50
5960;DHT22;3006;50.956;7.002;2024-03-17T05:11:55;5.60;91.50
5960;DHT22;3006;50.956;7.002;2024-03-17T05:14:22;5.50;91.50
5960;DHT22;3006;50.956;7.002;2024-03-17T05:16:51;5.40;92.20
5960;DHT22;3006;50.956;7.002;2024-03-17T05:19:18;5.50;92.00
5960;DHT22;3006;50.956;7.002;2024-03-17T05:21:46;5.50;91.60
5960;DHT22;3006;50.956;7.002;2024-03-17T05:24:13;5.50;91.50
5960;DHT22;3006;50.956;7.002;2024-03-17T05:26:40;5.40;92.10
5960;DHT22;3006;50.956;7.002;2024-03-17T05:29:08;5.50;91.60
5960;DHT22;3006;50.956;7.002;2024-03-17T05:31:35;5.50;91.60
5960;DHT22;3006;50.956;7.002;2024-03-17T05:34:06;5.50;91.60
5960;DHT22;3006;50.956;7.002;2024-03-17T05:36:35;5.50;91.90
5960;DHT22;3006;50.956;7.002;2024-03-17T05:39:02;5.50;91.60
5960;DHT22;3006;50.956;7.002;2024-03-17T05:41:29;5.40;92.10
5960;DHT22;3006;50.956;7.002;2024-03-17T05:43:56;5.40;92.20
5960;DHT22;3006;50.956;7.002;2024-03-17T05:46:25;5.40;92.10
5960;DHT22;3006;50.956;7.002;2024-03-17T05:48:53;5.30;92.60
5960;DHT22;3006;50.956;7.002;2024-03-17T05:51:22;5.30;92.60
5960;DHT22;3006;50.956;7.002;2024-03-17T05:53:51;5.30;93.00
5960;DHT22;3006;50.956;7.002;2024-03-17T05:56:18;5.40;92.90
5960;DHT22;3006;50.956;7.002;2024-03-17T05:58:49;5.40;93.00
5960;DHT22;3006;50.956;7.002;2024-03-17T06:01:16;5.50;92.80
5960;DHT22;3006;50.956;7.002;2024-03-17T06:03:43;5.30;93.10
5960;DHT22;3006;50.956;7.002;2024-03-17T06:06:10;5.30;93.30
5960;DHT22;3006;50.956;7.002;2024-03-17T06:08:39;5.40;94.70
5960;DHT22;3006;50.956;7.002;2024-03-17T06:11:07;5.70;92.50
5960;DHT22;3006;50.956;7.002;2024-03-17T06:13:34;5.50;92.60
5960;DHT22;3006;50.956;7.002;2024-03-17T06:16:03;5.50;92.80
5960;DHT22;3006;50.956;7.002;2024-03-17T06:18:31;5.50;92.80
5960;DHT22;3006;50.956;7.002;2024-03-17T06:20:58;5.50;92.90
5960;DHT22;3006;50.956;7.002;2024-03-17T06:23:25;5.50;93.40
5960;DHT22;3006;50.956;7.002;2024-03-17T06:25:55;5.50;93.00
5960;DHT22;3006;50.956;7.002;2024-03-17T06:28:23;5.60;94.20
5960;DHT22;3006;50.956;7.002;2024-03-17T06:30:56;5.70;92.10
5960;DHT22;3006;50.956;7.002;2024-03-17T06:33:23;5.60;92.30
5960;DHT22;3006;50.956;7.002;2024-03-17T06:35:50;5.50;92.80
5960;DHT22;3006;50.956;7.002;2024-03-17T06:38:17;5.50;92.30
5960;DHT22;3006;50.956;7.002;2024-03-17T06:40:48;5.40;93.50
5960;DHT22;3006;50.956;7.002;2024-03-17T06:43:17;5.60;93.00
5960;DHT22;3006;50.956;7.002;2024-03-17T06:45:54;5.60;92.70
5960;DHT22;3006;50.956;7.002;2024-03-17T06:48:22;5.60;92.80
5960;DHT22;3006;50.956;7.002;2024-03-17T06:50:49;5.60;92.80
5960;DHT22;3006;50.956;7.002;2024-03-17T06:53:17;5.60;92.60
5960;DHT22;3006;50.956;7.002;2024-03-17T06:55:51;5.60;92.70
5960;DHT22;3006;50.956;7.002;2024-03-17T06:58:20;5.70;92.10
5960;DHT22;3006;50.956;7.002;2024-03-17T07:00:55;5.60;92.30
5960;DHT22;3006;50.956;7.002;2024-03-17T07:03:24;5.70;92.40
5960;DHT22;3006;50.956;7.002;2024-03-17T07:05:52;5.70;91.90
5960;DHT22;3006;50.956;7.002;2024-03-17T07:08:20;5.70;92.20
5960;DHT22;3006;50.956;7.002;2024-03-17T07:11:01;5.80;92.10
5960;DHT22;3006;50.956;7.002;2024-03-17T07:13:31;5.60;93.20
5960;DHT22;3006;50.956;7.002;2024-03-17T07:15:59;5.60;93.10
5960;DHT22;3006;50.956;7.002;2024-03-17T07:18:26;5.70;93.30
5960;DHT22;3006;50.956;7.002;2024-03-17T07:20:56;5.80;92.20
5960;DHT22;3006;50.956;7.002;2024-03-17T07:23:24;6.00;92.90
5960;DHT22;3006;50.956;7.002;2024-03-17T07:25:53;6.20;92.00
5960;DHT22;3006;50.956;7.002;2024-03-17T07:28:20;6.30;91.70
5960;DHT22;3006;50.956;7.002;2024-03-17T07:30:50;6.50;91.20
5960;DHT22;3006;50.956;7.002;2024-03-17T07:33:17;6.60;90.10
5960;DHT22;3006;50.956;7.002;2024-03-17T07:35:47;6.50;90.80
5960;DHT22;3006;50.956;7.002;2024-03-17T07:38:14;6.70;90.10
5960;DHT22;3006;50.956;7.002;2024-03-17T07:40:42;6.90;89.40
5960;DHT22;3006;50.956;7.002;2024-03-17T07:43:09;6.80;90.00
5960;DHT22;3006;50.956;7.002;2024-03-17T07:45:37;6.80;89.90
5960;DHT22;3006;50.956;7.002;2024-03-17T07:48:06;6.90;89.70
5960;DHT22;3006;50.956;7.002;2024-03-17T07:50:34;7.00;89.20
5960;DHT22;3006;50.956;7.002;2024-03-17T07:53:01;7.20;88.20
5960;DHT22;3006;50.956;7.002;2024-03-17T07:55:29;7.20;87.80
5960;DHT22;3006;50.956;7.002;2024-03-17T07:57:57;7.40;87.60
5960;DHT22;3006;50.956;7.002;2024-03-17T08:00:24;7.60;87.10
5960;DHT22;3006;50.956;7.002;2024-03-17T08:02:52;7.60;86.40
5960;DHT22;3006;50.956;7.002;2024-03-17T08:05:21;7.80;85.80
5960;DHT22;3006;50.956;7.002;2024-03-17T08:07:49;7.90;85.30
5960;DHT22;3006;50.956;7.002;2024-03-17T08:10:16;8.00;85.40
5960;DHT22;3006;50.956;7.002;2024-03-17T08:12:43;8.00;84.50
5960;DHT22;3006;50.956;7.002;2024-03-17T08:15:11;8.20;84.20
5960;DHT22;3006;50.956;7.002;2024-03-17T08:17:39;8.20;84.20
5960;DHT22;3006;50.956;7.002;2024-03-17T08:20:07;8.30;83.50
5960;DHT22;3006;50.956;7.002;2024-03-17T08:22:36;8.40;82.80
5960;DHT22;3006;50.956;7.002;2024-03-17T08:25:04;8.50;82.40
5960;DHT22;3006;50.956;7.002;2024-03-17T08:27:31;8.50;82.60
5960;DHT22;3006;50.956;7.002;2024-03-17T08:29:59;8.60;81.90
5960;DHT22;3006;50.956;7.002;2024-03-17T08:32:26;8.60;80.50
5960;DHT22;3006;50.956;7.002;2024-03-17T08:34:53;8.50;80.70
5960;DHT22;3006;50.956;7.002;2024-03-17T08:37:20;8.60;80.40
5960;DHT22;3006;50.956;7.002;2024-03-17T08:39:52;8.50;79.80
5960;DHT22;3006;50.956;7.002;2024-03-17T08:42:20;8.60;79.80
5960;DHT22;3006;50.956;7.002;2024-03-17T08:44:47;8.80;78.90
5960;DHT22;3006;50.956;7.002;2024-03-17T08:47:14;8.80;78.40
5960;DHT22;3006;50.956;7.002;2024-03-17T08:49:41;9.00;78.30
5960;DHT22;3006;50.956;7.002;2024-03-17T08:52:08;9.10;78.10
5960;DHT22;3006;50.956;7.002;2024-03-17T08:54:36;9.20;77.70
5960;DHT22;3006;50.956;7.002;2024-03-17T08:57:04;9.20;77.90
5960;DHT22;3006;50.956;7.002;2024-03-17T08:59:32;9.20;78.30
5960;DHT22;3006;50.956;7.002;2024-03-17T09:01:59;9.20;77.50
5960;DHT22;3006;50.956;7.002;2024-03-17T09:04:26;9.20;77.30
5960;DHT22;3006;50.956;7.002;2024-03-17T09:06:53;9.20;77.30
5960;DHT22;3006;50.956;7.002;2024-03-17T09:09:22;9.40;77.20
5960;DHT22;3006;50.956;7.002;2024-03-17T09:11:50;9.40;76.90
5960;DHT22;3006;50.956;7.002;2024-03-17T09:14:19;9.40;76.90
5960;DHT22;3006;50.956;7.002;2024-03-17T09:16:47;9.50;76.90
5960;DHT22;3006;50.956;7.002;2024-03-17T09:19:14;9.70;76.40
5960;DHT22;3006;50.956;7.002;2024-03-17T09:21:42;10.00;76.20
5960;DHT22;3006;50.956;7.002;2024-03-17T09:24:10;10.00;75.60
5960;DHT22;3006;50.956;7.002;2024-03-17T09:26:38;9.80;75.20
5960;DHT22;3006;50.956;7.002;2024-03-17T09:29:06;9.80;75.90
5960;DHT22;3006;50.956;7.002;2024-03-17T09:31:34;9.80;75.50
5960;DHT22;3006;50.956;7.002;2024-03-17T09:34:02;9.70;75.70
5960;DHT22;3006;50.956;7.002;2024-03-17T09:36:30;9.70;75.70
5960;DHT22;3006;50.956;7.002;2024-03-17T09:38:57;9.70;76.30
5960;DHT22;3006;50.956;7.002;2024-03-17T09:41:26;9.90;76.20
5960;DHT22;3006;50.956;7.002;2024-03-17T09:43:55;9.90;76.10
5960;DHT22;3006;50.956;7.002;2024-03-17T09:46:23;10.00;75.80
5960;DHT22;3006;50.956;7.002;2024-03-17T09:48:54;10.20;75.80
5960;DHT22;3006;50.956;7.002;2024-03-17T09:51:24;10.30;75.10
5960;DHT22;3006;50.956;7.002;2024-03-17T09:53:51;10.40;74.70
5960;DHT22;3006;50.956;7.002;2024-03-17T09:56:20;10.50;74.60
5960;DHT22;3006;50.956;7.002;2024-03-17T09:58:48;10.60;74.50
5960;DHT22;3006;50.956;7.002;2024-03-17T10:01:15;10.70;74.50
5960;DHT22;3006;50.956;7.002;2024-03-17T10:03:44;10.70;74.30
5960;DHT22;3006;50.956;7.002;2024-03-17T10:06:13;10.80;74.00
5960;DHT22;3006;50.956;7.002;2024-03-17T10:08:42;10.80;73.20
5960;DHT22;3006;50.956;7.002;2024-03-17T10:11:10;10.90;73.80
5960;DHT22;3006;50.956;7.002;2024-03-17T10:13:39;11.00;73.70
5960;DHT22;3006;50.956;7.002;2024-03-17T10:16:06;10.90;73.60
5960;DHT22;3006;50.956;7.002;2024-03-17T10:18:33;10.90;72.80
5960;DHT22;3006;50.956;7.002;2024-03-17T10:21:01;10.90;73.30
5960;DHT22;3006;50.956;7.002;2024-03-17T10:23:29;11.00;73.10
5960;DHT22;3006;50.956;7.002;2024-03-17T10:25:56;10.90;72.50
5960;DHT22;3006;50.956;7.002;2024-03-17T10:28:23;11.00;72.10
5960;DHT22;3006;50.956;7.002;2024-03-17T10:30:58;11.10;71.90
5960;DHT22;3006;50.956;7.002;2024-03-17T10:33:26;11.10;72.00
5960;DHT22;3006;50.956;7.002;2024-03-17T10:35:59;11.10;71.90
5960;DHT22;3006;50.956;7.002;2024-03-17T10:38:29;11.30;72.40
5960;DHT22;3006;50.956;7.002;2024-03-17T10:40:56;11.50;71.80
5960;DHT22;3006;50.956;7.002;2024-03-17T10:43:24;11.40;71.70
5960;DHT22;3006;50.956;7.002;2024-03-17T10:45:52;11.50;71.90
5960;DHT22;3006;50.956;7.002;2024-03-17T10:48:21;11.60;71.50
5960;DHT22;3006;50.956;7.002;2024-03-17T10:50:53;11.70;71.20
5960;DHT22;3006;50.956;7.002;2024-03-17T10:53:22;11.60;71.20
5960;DHT22;3006;50.956;7.002;2024-03-17T10:56:02;11.60;71.20
5960;DHT22;3006;50.956;7.002;2024-03-17T10:58:34;11.70;71.20
5960;DHT22;3006;50.956;7.002;2024-03-17T11:01:04;11.90;70.60
5960;DHT22;3006;50.956;7.002;2024-03-17T11:03:34;11.90;69.80
5960;DHT22;3006;50.956;7.002;2024-03-17T11:06:03;11.90;69.60
5960;DHT22;3006;50.956;7.002;2024-03-17T11:08:32;11.90;69.70
5960;DHT22;3006;50.956;7.002;2024-03-17T11:11:02;11.90;69.90
5960;DHT22;3006;50.956;7.002;2024-03-17T11:13:31;11.90;69.90
5960;DHT22;3006;50.956;7.002;2024-03-17T11:15:59;12.10;70.20
5960;DHT22;3006;50.956;7.002;2024-03-17T11:18:37;12.10;69.50
5960;DHT22;3006;50.956;7.002;2024-03-17T11:21:19;12.20;69.40
5960;DHT22;3006;50.956;7.002;2024-03-17T11:23:58;12.30;69.40
5960;DHT22;3006;50.956;7.002;2024-03-17T11:26:32;12.30;68.30
5960;DHT22;3006;50.956;7.002;2024-03-17T11:29:00;12.30;68.40
5960;DHT22;3006;50.956;7.002;2024-03-17T11:31:36;12.40;68.90
5960;DHT22;3006;50.956;7.002;2024-03-17T11:34:04;12.50;68.60
5960;DHT22;3006;50.956;7.002;2024-03-17T11:36:35;12.40;68.50
5960;DHT22;3006;50.956;7.002;2024-03-17T11:39:03;12.50;67.80
5960;DHT22;3006;50.956;7.002;2024-03-17T11:41:44;12.70;68.30
5960;DHT22;3006;50.956;7.002;2024-03-17T11:44:13;12.80;67.00
5960;DHT22;3006;50.956;7.002;2024-03-17T11:46:41;12.70;67.60
5960;DHT22;3006;50.956;7.002;2024-03-17T11:49:19;12.70;67.70
5960;DHT22;3006;50.956;7.002;2024-03-17T11:51:47;12.70;67.50
5960;DHT22;3006;50.956;7.002;2024-03-17T11:54:15;12.60;67.90
5960;DHT22;3006;50.956;7.002;2024-03-17T11:56:48;12.80;67.60
5960;DHT22;3006;50.956;7.002;2024-03-17T11:59:15;12.80;67.50
5960;DHT22;3006;50.956;7.002;2024-03-17T12:01:44;12.80;67.00
5960;DHT22;3006;50.956;7.002;2024-03-17T12:04:12;12.90;67.30
5960;DHT22;3006;50.956;7.002;2024-03-17T12:06:43;13.00;67.60
5960;DHT22;3006;50.956;7.002;2024-03-17T12:09:18;13.00;67.00
5960;DHT22;3006;50.956;7.002;2024-03-17T12:11:49;13.00;66.90
5960;DHT22;3006;50.956;7.002;2024-03-17T12:14:17;12.90;67.00
5960;DHT22;3006;50.956;7.002;2024-03-17T12:16:52;12.90;67.20
5960;DHT22;3006;50.956;7.002;2024-03-17T12:19:19;13.00;67.50
5960;DHT22;3006;50.956;7.002;2024-03-17T12:21:48;13.10;67.20
5960;DHT22;3006;50.956;7.002;2024-03-17T12:24:17;13.10;67.00
5960;DHT22;3006;50.956;7.002;2024-03-17T12:26:45;13.00;67.00
5960;DHT22;3006;50.956;7.002;2024-03-17T12:29:24;13.10;66.90
5960;DHT22;3006;50.956;7.002;2024-03-17T12:31:54;13.10;66.60
5960;DHT22;3006;50.956;7.002;2024-03-17T12:34:22;13.10;66.80
5960;DHT22;3006;50.956;7.002;2024-03-17T12:36:50;13.10;66.40
5960;DHT22;3006;50.956;7.002;2024-03-17T12:39:21;13.20;66.70
5960;DHT22;3006;50.956;7.002;2024-03-17T12:42:02;13.10;66.60
5960;DHT22;3006;50.956;7.002;2024-03-17T12:44:29;13.10;66.70
5960;DHT22;3006;50.956;7.002;2024-03-17T12:46:58;13.10;66.90
5960;DHT22;3006;50.956;7.002;2024-03-17T12:49:26;13.10;67.00
5960;DHT22;3006;50.956;7.002;2024-03-17T12:51:54;13.10;67.40
5960;DHT22;3006;50.956;7.002;2024-03-17T12:54:23;13.30;67.70
5960;DHT22;3006;50.956;7.002;2024-03-17T12:57:03;13.30;66.60
5960;DHT22;3006;50.956;7.002;2024-03-17T12:59:49;13.30;66.90
5960;DHT22;3006;50.956;7.002;2024-03-17T13:02:34;13.30;66.90
5960;DHT22;3006;50.956;7.002;2024-03-17T13:05:13;13.30;66.70
5960;DHT22;3006;50.956;7.002;2024-03-17T13:07:41;13.30;67.00
5960;DHT22;3006;50.956;7.002;2024-03-17T13:10:08;13.30;66.20
5960;DHT22;3006;50.956;7.002;2024-03-17T13:12:36;13.40;66.80
5960;DHT22;3006;50.956;7.002;2024-03-17T13:15:06;13.50;66.60
5960;DHT22;3006;50.956;7.002;2024-03-17T13:17:35;13.50;65.60
5960;DHT22;3006;50.956;7.002;2024-03-17T13:20:03;13.40;65.70
5960;DHT22;3006;50.956;7.002;2024-03-17T13:22:35;13.50;66.40
5960;DHT22;3006;50.956;7.002;2024-03-17T13:25:05;13.50;66.20
5960;DHT22;3006;50.956;7.002;2024-03-17T13:27:32;13.50;66.00
5960;DHT22;3006;50.956;7.002;2024-03-17T13:30:00;13.40;65.50
5960;DHT22;3006;50.956;7.002;2024-03-17T13:32:28;13.30;65.40
5960;DHT22;3006;50.956;7.002;2024-03-17T13:34:55;13.30;65.80
5960;DHT22;3006;50.956;7.002;2024-03-17T13:37:22;13.20;66.10
5960;DHT22;3006;50.956;7.002;2024-03-17T13:39:50;13.30;66.10
5960;DHT22;3006;50.956;7.002;2024-03-17T13:42:17;13.10;66.50
5960;DHT22;3006;50.956;7.002;2024-03-17T13:44:44;13.10;66.20
5960;DHT22;3006;50.956;7.002;2024-03-17T13:47:12;13.10;66.10
5960;DHT22;3006;50.956;7.002;2024-03-17T13:49:42;13.10;66.30
5960;DHT22;3006;50.956;7.002;2024-03-17T13:52:09;13.20;66.30
5960;DHT22;3006;50.956;7.002;2024-03-17T13:54:37;13.20;66.20
5960;DHT22;3006;50.956;7.002;2024-03-17T13:57:04;13.20;66.20
5960;DHT22;3006;50.956;7.002;2024-03-17T13:59:32;13.10;66.40
5960;DHT22;3006;50.956;7.002;2024-03-17T14:02:00;13.10;66.80
5960;DHT22;3006;50.956;7.002;2024-03-17T14:04:28;13.10;66.70
5960;DHT22;3006;50.956;7.002;2024-03-17T14:06:56;13.10;66.60
5960;DHT22;3006;50.956;7.002;2024-03-17T14:09:24;13.30;68.00
5960;DHT22;3006;50.956;7.002;2024-03-17T14:11:51;13.60;67.60
5960;DHT22;3006;50.956;7.002;2024-03-17T14:14:18;13.90;67.90
5960;DHT22;3006;50.956;7.002;2024-03-17T14:16:46;14.10;67.00
5960;DHT22;3006;50.956;7.002;2024-03-17T14:19:13;13.90;66.20
5960;DHT22;3006;50.956;7.002;2024-03-17T14:21:40;13.80;66.60
5960;DHT22;3006;50.956;7.002;2024-03-17T14:24:09;13.90;67.10
5960;DHT22;3006;50.956;7.002;2024-03-17T14:26:36;13.70;68.20
5960;DHT22;3006;50.956;7.002;2024-03-17T14:29:03;13.50;68.80
5960;DHT22;3006;50.956;7.002;2024-03-17T14:31:31;13.50;70.10
5960;DHT22;3006;50.956;7.002;2024-03-17T14:34:00;13.40;69.00
5960;DHT22;3006;50.956;7.002;2024-03-17T14:36:27;13.40;69.70
5960;DHT22;3006;50.956;7.002;2024-03-17T14:38:57;13.50;68.60
5960;DHT22;3006;50.956;7.002;2024-03-17T14:41:29;13.50;68.80
5960;DHT22;3006;50.956;7.002;2024-03-17T14:43:56;13.50;68.30
5960;DHT22;3006;50.956;7.002;2024-03-17T14:46:24;13.70;68.30
5960;DHT22;3006;50.956;7.002;2024-03-17T14:48:51;13.80;69.80
5960;DHT22;3006;50.956;7.002;2024-03-17T14:51:19;13.90;68.20
5960;DHT22;3006;50.956;7.002;2024-03-17T14:53:46;13.90;68.10
5960;DHT22;3006;50.956;7.002;2024-03-17T14:56:15;13.70;67.60
5960;DHT22;3006;50.956;7.002;2024-03-17T15:04:50;13.80;66.80
5960;DHT22;3006;50.956;7.002;2024-03-17T15:07:18;14.10;67.20
5960;DHT22;3006;50.956;7.002;2024-03-17T15:09:45;14.20;65.80
5960;DHT22;3006;50.956;7.002;2024-03-17T15:12:13;14.30;66.60
5960;DHT22;3006;50.956;7.002;2024-03-17T15:14:41;14.30;66.80
5960;DHT22;3006;50.956;7.002;2024-03-17T15:17:09;14.20;65.20
5960;DHT22;3006;50.956;7.002;2024-03-17T15:19:36;14.00;65.10
5960;DHT22;3006;50.956;7.002;2024-03-17T15:22:09;14.00;65.50
5960;DHT22;3006;50.956;7.002;2024-03-17T15:24:36;14.10;65.40
5960;DHT22;3006;50.956;7.002;2024-03-17T15:27:03;14.10;65.00
5960;DHT22;3006;50.956;7.002;2024-03-17T15:29:31;14.20;64.60
5960;DHT22;3006;50.956;7.002;2024-03-17T15:31:58;14.20;64.80
5960;DHT22;3006;50.956;7.002;2024-03-17T15:34:25;14.10;64.70
5960;DHT22;3006;50.956;7.002;2024-03-17T15:36:53;14.10;64.00
5960;DHT22;3006;50.956;7.002;2024-03-17T15:39:22;14.10;63.70
5960;DHT22;3006;50.956;7.002;2024-03-17T15:41:49;14.00;64.40
5960;DHT22;3006;50.956;7.002;2024-03-17T15:44:16;14.00;64.40
5960;DHT22;3006;50.956;7.002;2024-03-17T15:46:46;13.90;64.50
5960;DHT22;3006;50.956;7.002;2024-03-17T15:49:20;13.90;64.70
5960;DHT22;3006;50.956;7.002;2024-03-17T15:51:48;13.90;65.10
5960;DHT22;3006;50.956;7.002;2024-03-17T15:54:15;13.90;65.10
5960;DHT22;3006;50.956;7.002;2024-03-17T15:56:43;13.90;64.90
5960;DHT22;3006;50.956;7.002;2024-03-17T15:59:11;13.90;65.00
5960;DHT22;3006;50.956;7.002;2024-03-17T16:01:38;13.90;64.90
5960;DHT22;3006;50.956;7.002;2024-03-17T16:04:05;13.90;65.30
5960;DHT22;3006;50.956;7.002;2024-03-17T16:06:32;13.90;66.00
5960;DHT22;3006;50.956;7.002;2024-03-17T16:09:00;13.90;66.40
5960;DHT22;3006;50.956;7.002;2024-03-17T16:11:28;13.90;66.30
5960;DHT22;3006;50.956;7.002;2024-03-17T16:13:59;13.90;65.60
5960;DHT22;3006;50.956;7.002;2024-03-17T16:16:27;13.90;66.10
5960;DHT22;3006;50.956;7.002;2024-03-17T16:18:55;13.90;66.10
5960;DHT22;3006;50.956;7.002;2024-03-17T16:21:23;13.90;66.10
5960;DHT22;3006;50.956;7.002;2024-03-17T16:23:55;13.90;66.00
5960;DHT22;3006;50.956;7.002;2024-03-17T16:26:24;13.90;66.30